• Join FlightAware (Why Join?)
  • Login
  • US Flag 
12:23AM EDT


 

Airport Tracker/Info


-or-


 

Live Flight TrackerFlight Track Log ✈ MAS2614 ✈ 22-Apr-2013 ✈ WMKK / KUL - WBKK / BKI

Flight Track Log - Related Links

Times and Time Zones

All times are in EDT time to prevent confusion due to time zone crossing. See the MAS2614 flight status page for this flight to view local times or setup timezone preferences in your user account.

Time Position Orientation Groundspeed Altitude Reporting Facility
EDT Latitude Longitude Course Direction KTS MPH feet Rate Location/Type
01:25AM 2.8790 101.6470 357° North 232 267 4,600  Level FlightAware
01:26AM 2.9050 101.6650 35° Northeast 239 275 5,800 2,100 Climbing FlightAware
01:26AM 2.9090 101.6770 72° East 253 291 6,000 420 Climbing FlightAware
01:26AM 2.9190 101.7040 70° East 256 295 6,100 2,040 Climbing FlightAware
01:27AM 2.9280 101.7420 77° East 282 325 7,900 3,300 Climbing FlightAware
01:27AM 2.9320 101.7670 81° East 287 330 8,600 2,280 Climbing FlightAware
01:27AM 2.9400 101.8070 79° East 295 339 9,800 1,980 Climbing FlightAware
01:28AM 2.9470 101.8440 79° East 307 353 10,600 2,100 Climbing FlightAware
01:29AM 2.9640 101.9250 78° East 329 379 12,600 2,280 Climbing FlightAware
01:29AM 2.9760 101.9880 79° East 341 392 14,100 1,380 Climbing FlightAware
01:30AM 2.9970 102.0410 68° East 347 399 14,500 1,500 Climbing FlightAware
01:31AM 3.0410 102.1180 60° Northeast 402 463 16,300 2,220 Climbing FlightAware
01:32AM 3.0760 102.1860 63° Northeast 408 470 17,700 2,040 Climbing FlightAware
01:32AM 3.1230 102.2670 60° Northeast 419 482 19,400 2,040 Climbing FlightAware
01:33AM 3.1590 102.3420 64° Northeast 427 491 20,800 2,100 Climbing FlightAware
01:34AM 3.1980 102.4010 56° Northeast 425 489 22,200 1,860 Climbing FlightAware
01:34AM 3.2270 102.4810 70° East 426 490 23,500 1,620 Climbing FlightAware
01:35AM 3.2390 102.5560 81° East 432 497 24,400 660 Climbing FlightAware
01:36AM 3.2530 102.6370 80° East 432 497 24,400 840 Level FlightAware
01:36AM 3.2660 102.7150 81° East 437 503 25,600 900 Climbing FlightAware
01:37AM 3.2780 102.7830 80° East 437 503 25,600 900 Level FlightAware
01:38AM 3.2990 102.9140 81° East 447 514 27,000 1,020 Climbing FlightAware
01:38AM 3.3090 102.9750 81° East 445 512 27,000  Level FlightAware
01:40AM 3.3310 103.1080 81° East 440 506 27,000  Level FlightAware
01:40AM 3.3450 103.1970 81° East 439 505 27,000  Level FlightAware
01:41AM 3.3630 103.2960 80° East 439 505 27,000  Level FlightAware
01:42AM 3.3750 103.3640 80° East 439 505 27,000  Level FlightAware
01:43AM 3.3870 103.4330 80° East 439 505 27,000  Level FlightAware
01:43AM 3.3990 103.5010 80° East 439 505 27,000  Level FlightAware
01:44AM 3.4110 103.5690 80° East 439 505 27,000  Level FlightAware
01:45AM 3.4230 103.6370 80° East 439 505 27,000  Level FlightAware
01:46AM 3.4040 103.8440 95° East 447 514 27,000  Level FlightAware
01:46AM 3.4100 103.9280 86° East 447 514 27,000  Level FlightAware
01:47AM 3.4150 103.9980 86° East 447 514 27,000  Level FlightAware
01:48AM 3.4200 104.0680 86° East 447 514 27,000  Level FlightAware
01:48AM 3.4260 104.1560 86° East 447 514 27,000 1,320 Level FlightAware
01:49AM 3.4270 104.2910 90° East 444 511 29,000 1,500 Climbing FlightAware
01:50AM 3.4310 104.3730 87° East 443 510 29,000  Level FlightAware
01:51AM 3.4350 104.4630 87° East 442 509 29,000  Level FlightAware
01:51AM 3.4400 104.5450 87° East 442 509 29,000  Level FlightAware
01:52AM 3.4440 104.6250 87° East 442 509 29,000  Level FlightAware
01:53AM 3.4490 104.7200 87° East 441 507 29,000  Level FlightAware
01:53AM 3.4530 104.8090 87° East 440 506 29,000  Level FlightAware
01:54AM 3.4580 104.8910 87° East 439 505 29,000  Level FlightAware
01:55AM 3.4620 104.9720 87° East 439 505 29,000  Level FlightAware
01:55AM 3.4660 105.0620 87° East 438 504 29,000  Level FlightAware
01:56AM 3.4710 105.1450 87° East 438 504 29,000  Level FlightAware
01:57AM 3.4750 105.2240 87° East 437 503 29,000  Level FlightAware
01:58AM 3.4790 105.3170 88° East 437 503 29,000  Level FlightAware
01:58AM 3.4830 105.3950 87° East 437 503 29,000  Level FlightAware
01:59AM 3.4880 105.4870 87° East 437 503 29,000  Level FlightAware
02:00AM 3.4920 105.5680 87° East 436 502 29,000  Level FlightAware
02:00AM 3.4960 105.6490 87° East 437 503 29,000  Level FlightAware
02:01AM 3.5010 105.7380 87° East 437 503 29,000  Level FlightAware
02:02AM 3.5050 105.8200 87° East 436 502 29,000  Level FlightAware
02:02AM 3.5080 105.8930 88° East 436 502 29,000  Level FlightAware
02:03AM 3.5120 105.9610 87° East 436 502 29,000  Level FlightAware
02:04AM 3.5190 106.1020 87° East 433 498 29,000  Level FlightAware
02:05AM 3.5240 106.1970 87° East 433 498 29,000  Level FlightAware
02:06AM 3.5290 106.2830 87° East 433 498 29,000  Level FlightAware
02:06AM 3.5320 106.3510 87° East 433 498 29,000  Level FlightAware
02:07AM 3.5360 106.4190 87° East 433 498 29,000  Level FlightAware
02:08AM 3.5390 106.4870 87° East 433 498 29,000  Level FlightAware
02:08AM 3.5430 106.5550 87° East 433 498 29,000  Level FlightAware
02:11AM 3.5988 106.7702 75° East  Level Estimated
02:12AM 3.6245 106.8695 75° East  Level Estimated
02:13AM 3.6502 106.9689 75° East  Level Estimated
02:14AM 3.6759 107.0682 75° East  Level Estimated
02:15AM 3.7015 107.1676 75° East  Level Estimated
02:16AM 3.7272 107.2669 75° East  Level Estimated
02:17AM 3.7529 107.3663 75° East  Level Estimated
02:18AM 3.7785 107.4657 75° East  Level Estimated
02:19AM 3.8042 107.5650 75° East  Level Estimated
02:20AM 3.8298 107.6644 76° East  Level Estimated
02:21AM 3.8554 107.7638 76° East  Level Estimated
02:22AM 3.8810 107.8632 76° East  Level Estimated
02:23AM 3.9066 107.9626 76° East  Level Estimated
02:24AM 3.9322 108.0620 76° East  Level Estimated
02:25AM 3.9578 108.1614 76° East  Level Estimated
02:26AM 3.9833 108.2608 76° East  Level Estimated
02:27AM 4.0089 108.3602 76° East  Level Estimated
02:28AM 4.0344 108.4597 76° East  Level Estimated
02:29AM 4.0599 108.5591 76° East  Level Estimated
02:30AM 4.0854 108.6585 76° East  Level Estimated
02:31AM 4.1109 108.7580 76° East  Level Estimated
02:32AM 4.1364 108.8574 76° East  Level Estimated
02:33AM 4.1619 108.9569 76° East  Level Estimated
02:34AM 4.1873 109.0564 76° East  Level Estimated
02:35AM 4.2128 109.1558 76° East  Level Estimated
02:36AM 4.2382 109.2553 76° East  Level Estimated
02:37AM 4.2636 109.3548 76° East  Level Estimated
02:38AM 4.2890 109.4543 76° East  Level Estimated
02:39AM 4.3144 109.5538 76° East  Level Estimated
02:40AM 4.3398 109.6533 76° East  Level Estimated
02:41AM 4.3652 109.7528 76° East  Level Estimated
02:42AM 4.3905 109.8523 76° East  Level Estimated
02:43AM 4.4159 109.9519 76° East  Level Estimated
02:44AM 4.4412 110.0514 76° East  Level Estimated
02:45AM 4.4665 110.1509 76° East  Level Estimated
02:46AM 4.4918 110.2505 76° East  Level Estimated
02:47AM 4.5171 110.3500 76° East  Level Estimated
02:48AM 4.5424 110.4496 76° East  Level Estimated
02:49AM 4.5677 110.5492 76° East  Level Estimated
02:50AM 4.5929 110.6487 76° East  Level Estimated
02:51AM 4.6181 110.7483 76° East  Level Estimated
02:52AM 4.6434 110.8479 76° East  Level Estimated
02:53AM 4.6686 110.9475 76° East  Level Estimated
02:54AM 4.6938 111.0471 76° East  Level Estimated
02:55AM 4.7189 111.1467 76° East  Level Estimated
02:56AM 4.7441 111.2463 76° East  Level Estimated
02:57AM 4.7692 111.3459 76° East  Level Estimated
02:58AM 4.7944 111.4456 76° East  Level Estimated
02:59AM 4.8195 111.5452 76° East  Level Estimated
03:00AM 4.8446 111.6449 76° East  Level Estimated
03:01AM 4.8697 111.7445 76° East  Level Estimated
03:02AM 4.8948 111.8442 76° East  Level Estimated
03:03AM 4.9198 111.9438 76° East  Level Estimated
03:04AM 4.9449 112.0435 76° East  Level Estimated
03:05AM 4.9699 112.1432 76° East  Level Estimated
03:06AM 4.9949 112.2429 76° East  Level Estimated
03:07AM 5.0199 112.3426 76° East  Level Estimated
03:08AM 5.0449 112.4423 76° East  Level Estimated
03:09AM 5.0699 112.5420 76° East  Level Estimated
03:10AM 5.0949 112.6417 76° East  Level Estimated
03:11AM 5.1198 112.7415 76° East  Level Estimated
03:11AM 5.3210 113.7340 76° East 423 487 29,000  Level FlightAware
03:12AM 5.1447 112.8412 76° East  Level Estimated
03:13AM 5.1697 112.9410 76° East  Level Estimated
03:14AM 5.1946 113.0407 76° East  Level Estimated
03:14AM 5.4140 114.0940 75° East 422 486 29,000  Level FlightAware
03:16AM 5.4599 114.2645 75° East  Level Estimated
03:17AM 5.4866 114.3638 75° East  Level Estimated
03:18AM 5.5132 114.4632 75° East  Level Estimated
03:19AM 5.5399 114.5625 75° East  Level Estimated
03:20AM 5.5666 114.6619 75° East  Level Estimated
03:21AM 5.5932 114.7612 75° East  Level Estimated
03:22AM 5.6198 114.8606 75° East  Level Estimated
03:23AM 5.6464 114.9600 75° East  Level Estimated
03:24AM 5.6730 115.0594 75° East  Level Estimated
03:25AM 5.6996 115.1588 75° East  Level Estimated
03:26AM 5.7261 115.2582 75° East  Level Estimated
03:27AM 5.7526 115.3576 75° East  Level Estimated
03:28AM 5.7792 115.4570 75° East  Level Estimated
03:29AM 5.8057 115.5565 75° East  Level Estimated
03:30AM 5.8321 115.6559 75° East  Level Estimated
03:31AM 5.8586 115.7554 75° East  Level Estimated
03:32AM 5.8851 115.8548 75° East  Level Estimated
03:33AM 5.9115 115.9543 75° East  Level Estimated
03:34AM 5.9372 116.0512 75° East  Level Estimated
03:35AM 5.9372 116.0512 154° Southeast  Level Estimated
03:36AM 5.9372 116.0512 154° Southeast  Level Estimated
03:37AM 5.9372 116.0512 154° Southeast  Level Estimated
03:38AM 5.9372 116.0512 154° Southeast  Level Estimated
03:39AM 5.9372 116.0512 154° Southeast  Level Estimated
03:40AM 5.9372 116.0512 154° Southeast  Level Estimated
03:41AM 5.9372 116.0512 154° Southeast  Level Estimated
03:42AM 5.9372 116.0512 154° Southeast  Level Estimated
03:43AM 5.9372 116.0512 154° Southeast  Level Estimated
03:44AM 5.9372 116.0512 154° Southeast  Level Estimated
03:45AM 5.9372 116.0512 154° Southeast  Level Estimated
03:46AM 5.9372 116.0512 154° Southeast  Level Estimated
03:47AM 5.9372 116.0512 154° Southeast  Level Estimated
03:48AM 5.9372 116.0512 154° Southeast  Level Estimated
03:49AM 5.9372 116.0512 154° Southeast  Level Estimated